sensor_id;sensor_type;location;lat;lon;timestamp;P1;durP1;ratioP1;P2;durP2;ratioP2
16775;SDS011;8505;49.456;8.164;2023-07-08T00:02:12;15.70;;;10.00;;
16775;SDS011;8505;49.456;8.164;2023-07-08T00:04:40;16.55;;;10.02;;
16775;SDS011;8505;49.456;8.164;2023-07-08T00:07:11;17.25;;;9.73;;
16775;SDS011;8505;49.456;8.164;2023-07-08T00:09:40;17.60;;;9.95;;
16775;SDS011;8505;49.456;8.164;2023-07-08T00:12:08;16.27;;;9.80;;
16775;SDS011;8505;49.456;8.164;2023-07-08T00:14:38;16.67;;;10.02;;
16775;SDS011;8505;49.456;8.164;2023-07-08T00:17:10;17.57;;;9.70;;
16775;SDS011;8505;49.456;8.164;2023-07-08T00:19:39;16.40;;;9.60;;
16775;SDS011;8505;49.456;8.164;2023-07-08T00:22:08;15.10;;;9.43;;
16775;SDS011;8505;49.456;8.164;2023-07-08T00:24:41;15.63;;;10.00;;
16775;SDS011;8505;49.456;8.164;2023-07-08T00:27:10;14.83;;;9.43;;
16775;SDS011;8505;49.456;8.164;2023-07-08T00:29:40;15.57;;;9.57;;
16775;SDS011;8505;49.456;8.164;2023-07-08T00:32:11;17.45;;;9.40;;
16775;SDS011;8505;49.456;8.164;2023-07-08T00:34:40;20.27;;;9.37;;
16775;SDS011;8505;49.456;8.164;2023-07-08T00:37:10;14.82;;;9.52;;
16775;SDS011;8505;49.456;8.164;2023-07-08T00:39:40;16.20;;;9.70;;
16775;SDS011;8505;49.456;8.164;2023-07-08T00:42:12;17.27;;;9.88;;
16775;SDS011;8505;49.456;8.164;2023-07-08T00:44:43;15.77;;;9.98;;
16775;SDS011;8505;49.456;8.164;2023-07-08T00:47:12;16.40;;;9.80;;
16775;SDS011;8505;49.456;8.164;2023-07-08T00:49:43;16.48;;;9.75;;
16775;SDS011;8505;49.456;8.164;2023-07-08T00:52:16;16.33;;;9.73;;
16775;SDS011;8505;49.456;8.164;2023-07-08T00:54:47;17.50;;;9.88;;
16775;SDS011;8505;49.456;8.164;2023-07-08T00:57:16;16.13;;;9.70;;
16775;SDS011;8505;49.456;8.164;2023-07-08T00:59:45;16.40;;;10.00;;
16775;SDS011;8505;49.456;8.164;2023-07-08T01:02:19;14.85;;;9.35;;
16775;SDS011;8505;49.456;8.164;2023-07-08T01:04:50;15.60;;;9.75;;
16775;SDS011;8505;49.456;8.164;2023-07-08T01:07:22;14.02;;;9.02;;
16775;SDS011;8505;49.456;8.164;2023-07-08T01:09:54;17.00;;;9.85;;
16775;SDS011;8505;49.456;8.164;2023-07-08T01:12:26;16.15;;;9.70;;
16775;SDS011;8505;49.456;8.164;2023-07-08T01:14:58;14.95;;;9.10;;
16775;SDS011;8505;49.456;8.164;2023-07-08T01:17:28;15.63;;;9.33;;
16775;SDS011;8505;49.456;8.164;2023-07-08T01:19:59;15.80;;;9.40;;
16775;SDS011;8505;49.456;8.164;2023-07-08T01:22:32;17.05;;;9.35;;
16775;SDS011;8505;49.456;8.164;2023-07-08T01:25:02;14.40;;;9.30;;
16775;SDS011;8505;49.456;8.164;2023-07-08T01:27:31;14.03;;;9.17;;
16775;SDS011;8505;49.456;8.164;2023-07-08T01:30:03;14.80;;;9.38;;
16775;SDS011;8505;49.456;8.164;2023-07-08T01:32:32;14.93;;;9.40;;
16775;SDS011;8505;49.456;8.164;2023-07-08T01:35:04;15.50;;;9.00;;
16775;SDS011;8505;49.456;8.164;2023-07-08T01:37:35;13.90;;;8.93;;
16775;SDS011;8505;49.456;8.164;2023-07-08T01:40:15;14.32;;;8.82;;
16775;SDS011;8505;49.456;8.164;2023-07-08T01:42:44;13.65;;;8.57;;
16775;SDS011;8505;49.456;8.164;2023-07-08T01:45:12;15.18;;;9.07;;
16775;SDS011;8505;49.456;8.164;2023-07-08T01:47:41;15.70;;;9.32;;
16775;SDS011;8505;49.456;8.164;2023-07-08T01:50:12;15.20;;;9.10;;
16775;SDS011;8505;49.456;8.164;2023-07-08T01:52:41;16.83;;;9.10;;
16775;SDS011;8505;49.456;8.164;2023-07-08T01:55:09;13.73;;;8.80;;
16775;SDS011;8505;49.456;8.164;2023-07-08T01:57:37;15.85;;;9.55;;
16775;SDS011;8505;49.456;8.164;2023-07-08T02:00:05;15.13;;;9.00;;
16775;SDS011;8505;49.456;8.164;2023-07-08T02:02:33;14.32;;;9.20;;
16775;SDS011;8505;49.456;8.164;2023-07-08T02:05:01;15.02;;;9.15;;
16775;SDS011;8505;49.456;8.164;2023-07-08T02:07:29;13.93;;;8.83;;
16775;SDS011;8505;49.456;8.164;2023-07-08T02:09:58;13.65;;;9.05;;
16775;SDS011;8505;49.456;8.164;2023-07-08T02:12:26;14.25;;;8.68;;
16775;SDS011;8505;49.456;8.164;2023-07-08T02:14:54;14.15;;;9.15;;
16775;SDS011;8505;49.456;8.164;2023-07-08T02:17:22;14.43;;;8.98;;
16775;SDS011;8505;49.456;8.164;2023-07-08T02:19:49;12.77;;;8.13;;
16775;SDS011;8505;49.456;8.164;2023-07-08T02:22:17;14.60;;;9.38;;
16775;SDS011;8505;49.456;8.164;2023-07-08T02:24:45;14.73;;;9.20;;
16775;SDS011;8505;49.456;8.164;2023-07-08T02:27:15;16.15;;;8.90;;
16775;SDS011;8505;49.456;8.164;2023-07-08T02:29:43;14.63;;;9.00;;
16775;SDS011;8505;49.456;8.164;2023-07-08T02:32:10;14.82;;;9.13;;
16775;SDS011;8505;49.456;8.164;2023-07-08T02:34:38;13.70;;;8.35;;
16775;SDS011;8505;49.456;8.164;2023-07-08T02:37:06;15.95;;;8.95;;
16775;SDS011;8505;49.456;8.164;2023-07-08T02:39:34;15.00;;;9.18;;
16775;SDS011;8505;49.456;8.164;2023-07-08T02:42:02;13.93;;;8.90;;
16775;SDS011;8505;49.456;8.164;2023-07-08T02:44:31;14.37;;;9.40;;
16775;SDS011;8505;49.456;8.164;2023-07-08T02:46:59;14.80;;;9.00;;
16775;SDS011;8505;49.456;8.164;2023-07-08T02:49:28;17.50;;;9.18;;
16775;SDS011;8505;49.456;8.164;2023-07-08T02:51:57;15.80;;;9.30;;
16775;SDS011;8505;49.456;8.164;2023-07-08T02:54:25;14.98;;;8.80;;
16775;SDS011;8505;49.456;8.164;2023-07-08T02:56:52;16.10;;;8.90;;
16775;SDS011;8505;49.456;8.164;2023-07-08T02:59:20;14.23;;;8.57;;
16775;SDS011;8505;49.456;8.164;2023-07-08T03:01:49;16.77;;;8.73;;
16775;SDS011;8505;49.456;8.164;2023-07-08T03:04:17;12.83;;;8.30;;
16775;SDS011;8505;49.456;8.164;2023-07-08T03:06:45;14.90;;;8.38;;
16775;SDS011;8505;49.456;8.164;2023-07-08T03:09:13;13.43;;;8.53;;
16775;SDS011;8505;49.456;8.164;2023-07-08T03:11:41;14.48;;;8.38;;
16775;SDS011;8505;49.456;8.164;2023-07-08T03:14:09;13.47;;;8.40;;
16775;SDS011;8505;49.456;8.164;2023-07-08T03:16:36;12.13;;;8.32;;
16775;SDS011;8505;49.456;8.164;2023-07-08T03:19:06;14.80;;;8.57;;
16775;SDS011;8505;49.456;8.164;2023-07-08T03:21:35;14.45;;;8.52;;
16775;SDS011;8505;49.456;8.164;2023-07-08T03:24:03;13.38;;;8.65;;
16775;SDS011;8505;49.456;8.164;2023-07-08T03:26:31;15.02;;;8.38;;
16775;SDS011;8505;49.456;8.164;2023-07-08T03:29:00;14.30;;;8.38;;
16775;SDS011;8505;49.456;8.164;2023-07-08T03:31:28;13.43;;;8.55;;
16775;SDS011;8505;49.456;8.164;2023-07-08T03:33:56;14.45;;;8.38;;
16775;SDS011;8505;49.456;8.164;2023-07-08T03:36:25;13.60;;;8.93;;
16775;SDS011;8505;49.456;8.164;2023-07-08T03:38:54;13.30;;;8.40;;
16775;SDS011;8505;49.456;8.164;2023-07-08T03:41:24;12.93;;;8.65;;
16775;SDS011;8505;49.456;8.164;2023-07-08T03:43:51;15.30;;;8.77;;
16775;SDS011;8505;49.456;8.164;2023-07-08T03:46:19;13.93;;;8.38;;
16775;SDS011;8505;49.456;8.164;2023-07-08T03:48:49;12.95;;;8.40;;
16775;SDS011;8505;49.456;8.164;2023-07-08T03:51:17;13.95;;;8.52;;
16775;SDS011;8505;49.456;8.164;2023-07-08T03:53:50;13.77;;;8.60;;
16775;SDS011;8505;49.456;8.164;2023-07-08T03:56:18;15.25;;;8.75;;
16775;SDS011;8505;49.456;8.164;2023-07-08T03:58:46;13.93;;;8.60;;
16775;SDS011;8505;49.456;8.164;2023-07-08T04:01:14;13.27;;;8.25;;
16775;SDS011;8505;49.456;8.164;2023-07-08T04:03:43;13.65;;;8.32;;
16775;SDS011;8505;49.456;8.164;2023-07-08T04:06:12;13.50;;;8.05;;
16775;SDS011;8505;49.456;8.164;2023-07-08T04:08:40;13.88;;;8.32;;
16775;SDS011;8505;49.456;8.164;2023-07-08T04:11:09;15.85;;;8.55;;
16775;SDS011;8505;49.456;8.164;2023-07-08T04:13:39;15.00;;;8.55;;
16775;SDS011;8505;49.456;8.164;2023-07-08T04:16:08;14.18;;;8.82;;
16775;SDS011;8505;49.456;8.164;2023-07-08T04:18:46;13.57;;;8.40;;
16775;SDS011;8505;49.456;8.164;2023-07-08T04:21:14;13.27;;;8.10;;
16775;SDS011;8505;49.456;8.164;2023-07-08T04:23:45;13.98;;;8.82;;
16775;SDS011;8505;49.456;8.164;2023-07-08T04:26:14;13.88;;;8.30;;
16775;SDS011;8505;49.456;8.164;2023-07-08T04:28:42;11.65;;;7.78;;
16775;SDS011;8505;49.456;8.164;2023-07-08T04:31:10;12.37;;;8.20;;
16775;SDS011;8505;49.456;8.164;2023-07-08T04:33:38;13.70;;;8.82;;
16775;SDS011;8505;49.456;8.164;2023-07-08T04:36:08;13.30;;;8.75;;
16775;SDS011;8505;49.456;8.164;2023-07-08T04:38:39;13.80;;;8.73;;
16775;SDS011;8505;49.456;8.164;2023-07-08T04:41:08;14.77;;;8.90;;
16775;SDS011;8505;49.456;8.164;2023-07-08T04:43:37;15.50;;;9.45;;
16775;SDS011;8505;49.456;8.164;2023-07-08T04:46:05;15.02;;;9.20;;
16775;SDS011;8505;49.456;8.164;2023-07-08T04:48:44;16.15;;;9.57;;
16775;SDS011;8505;49.456;8.164;2023-07-08T04:51:14;14.70;;;9.18;;
16775;SDS011;8505;49.456;8.164;2023-07-08T04:53:42;15.93;;;9.27;;
16775;SDS011;8505;49.456;8.164;2023-07-08T04:56:09;16.45;;;8.98;;
16775;SDS011;8505;49.456;8.164;2023-07-08T04:58:38;16.52;;;9.55;;
16775;SDS011;8505;49.456;8.164;2023-07-08T05:01:06;16.55;;;9.18;;
16775;SDS011;8505;49.456;8.164;2023-07-08T05:03:34;15.70;;;9.27;;
16775;SDS011;8505;49.456;8.164;2023-07-08T05:06:02;16.27;;;9.77;;
16775;SDS011;8505;49.456;8.164;2023-07-08T05:08:30;16.90;;;10.05;;
16775;SDS011;8505;49.456;8.164;2023-07-08T05:10:58;19.15;;;9.77;;
16775;SDS011;8505;49.456;8.164;2023-07-08T05:13:26;19.13;;;10.50;;
16775;SDS011;8505;49.456;8.164;2023-07-08T05:15:55;19.17;;;10.57;;
16775;SDS011;8505;49.456;8.164;2023-07-08T05:18:22;19.08;;;10.70;;
16775;SDS011;8505;49.456;8.164;2023-07-08T05:20:50;17.38;;;9.85;;
16775;SDS011;8505;49.456;8.164;2023-07-08T05:23:18;17.53;;;9.67;;
16775;SDS011;8505;49.456;8.164;2023-07-08T05:25:46;18.48;;;10.27;;
16775;SDS011;8505;49.456;8.164;2023-07-08T05:28:14;15.50;;;9.60;;
16775;SDS011;8505;49.456;8.164;2023-07-08T05:30:42;17.10;;;9.73;;
16775;SDS011;8505;49.456;8.164;2023-07-08T05:33:11;16.05;;;9.57;;
16775;SDS011;8505;49.456;8.164;2023-07-08T05:35:39;18.77;;;10.18;;
16775;SDS011;8505;49.456;8.164;2023-07-08T05:38:06;16.87;;;9.57;;
16775;SDS011;8505;49.456;8.164;2023-07-08T05:40:37;16.77;;;9.50;;
16775;SDS011;8505;49.456;8.164;2023-07-08T05:43:05;19.80;;;10.50;;
16775;SDS011;8505;49.456;8.164;2023-07-08T05:45:32;16.75;;;10.13;;
16775;SDS011;8505;49.456;8.164;2023-07-08T05:48:01;18.43;;;9.90;;
16775;SDS011;8505;49.456;8.164;2023-07-08T05:50:31;18.20;;;10.70;;
16775;SDS011;8505;49.456;8.164;2023-07-08T05:52:59;17.50;;;10.40;;
16775;SDS011;8505;49.456;8.164;2023-07-08T05:55:26;18.48;;;10.70;;
16775;SDS011;8505;49.456;8.164;2023-07-08T05:57:54;16.77;;;9.63;;
16775;SDS011;8505;49.456;8.164;2023-07-08T06:00:22;14.73;;;9.75;;
16775;SDS011;8505;49.456;8.164;2023-07-08T06:02:55;15.10;;;9.50;;
16775;SDS011;8505;49.456;8.164;2023-07-08T06:05:23;15.17;;;9.43;;
16775;SDS011;8505;49.456;8.164;2023-07-08T06:07:52;17.73;;;9.73;;
16775;SDS011;8505;49.456;8.164;2023-07-08T06:10:20;16.63;;;10.10;;
16775;SDS011;8505;49.456;8.164;2023-07-08T06:12:48;16.95;;;9.80;;
16775;SDS011;8505;49.456;8.164;2023-07-08T06:15:15;16.70;;;9.73;;
16775;SDS011;8505;49.456;8.164;2023-07-08T06:17:45;14.53;;;8.73;;
16775;SDS011;8505;49.456;8.164;2023-07-08T06:20:13;13.75;;;9.10;;
16775;SDS011;8505;49.456;8.164;2023-07-08T06:22:44;14.70;;;9.30;;
16775;SDS011;8505;49.456;8.164;2023-07-08T06:25:15;14.55;;;9.15;;
16775;SDS011;8505;49.456;8.164;2023-07-08T06:27:43;15.57;;;8.65;;
16775;SDS011;8505;49.456;8.164;2023-07-08T06:30:11;14.07;;;9.15;;
16775;SDS011;8505;49.456;8.164;2023-07-08T06:32:39;15.05;;;9.45;;
16775;SDS011;8505;49.456;8.164;2023-07-08T06:35:07;15.65;;;9.27;;
16775;SDS011;8505;49.456;8.164;2023-07-08T06:37:35;14.57;;;9.18;;
16775;SDS011;8505;49.456;8.164;2023-07-08T06:40:03;14.60;;;8.93;;
16775;SDS011;8505;49.456;8.164;2023-07-08T06:42:33;14.45;;;9.70;;
16775;SDS011;8505;49.456;8.164;2023-07-08T06:45:01;17.02;;;10.40;;
16775;SDS011;8505;49.456;8.164;2023-07-08T06:47:29;15.93;;;10.45;;
16775;SDS011;8505;49.456;8.164;2023-07-08T06:49:57;16.02;;;9.88;;
16775;SDS011;8505;49.456;8.164;2023-07-08T06:52:25;15.38;;;9.60;;
16775;SDS011;8505;49.456;8.164;2023-07-08T06:54:52;14.98;;;9.15;;
16775;SDS011;8505;49.456;8.164;2023-07-08T06:57:20;15.13;;;8.88;;
16775;SDS011;8505;49.456;8.164;2023-07-08T06:59:49;15.05;;;9.48;;
16775;SDS011;8505;49.456;8.164;2023-07-08T07:02:17;14.48;;;8.88;;
16775;SDS011;8505;49.456;8.164;2023-07-08T07:04:46;15.75;;;9.02;;
16775;SDS011;8505;49.456;8.164;2023-07-08T07:07:13;15.23;;;9.02;;
16775;SDS011;8505;49.456;8.164;2023-07-08T07:09:41;12.63;;;8.25;;
16775;SDS011;8505;49.456;8.164;2023-07-08T07:12:09;13.27;;;8.45;;
16775;SDS011;8505;49.456;8.164;2023-07-08T07:14:37;13.93;;;8.68;;
16775;SDS011;8505;49.456;8.164;2023-07-08T07:17:09;12.25;;;8.30;;
16775;SDS011;8505;49.456;8.164;2023-07-08T07:19:36;14.57;;;8.40;;
16775;SDS011;8505;49.456;8.164;2023-07-08T07:22:05;12.52;;;8.55;;
16775;SDS011;8505;49.456;8.164;2023-07-08T07:24:33;13.70;;;8.52;;
16775;SDS011;8505;49.456;8.164;2023-07-08T07:27:00;14.30;;;9.00;;
16775;SDS011;8505;49.456;8.164;2023-07-08T07:29:37;13.00;;;8.95;;
16775;SDS011;8505;49.456;8.164;2023-07-08T07:32:09;13.95;;;8.38;;
16775;SDS011;8505;49.456;8.164;2023-07-08T07:34:37;13.50;;;8.38;;
16775;SDS011;8505;49.456;8.164;2023-07-08T07:37:05;12.57;;;8.37;;
16775;SDS011;8505;49.456;8.164;2023-07-08T07:39:37;13.85;;;8.32;;
16775;SDS011;8505;49.456;8.164;2023-07-08T07:42:05;12.18;;;8.05;;
16775;SDS011;8505;49.456;8.164;2023-07-08T07:44:34;13.27;;;8.05;;
16775;SDS011;8505;49.456;8.164;2023-07-08T07:47:02;13.63;;;7.88;;
16775;SDS011;8505;49.456;8.164;2023-07-08T07:49:32;11.85;;;7.22;;
16775;SDS011;8505;49.456;8.164;2023-07-08T07:52:00;10.60;;;6.80;;
16775;SDS011;8505;49.456;8.164;2023-07-08T07:54:28;13.13;;;8.00;;
16775;SDS011;8505;49.456;8.164;2023-07-08T07:56:56;11.68;;;7.32;;
16775;SDS011;8505;49.456;8.164;2023-07-08T07:59:23;11.23;;;6.80;;
16775;SDS011;8505;49.456;8.164;2023-07-08T08:01:52;10.57;;;6.93;;
16775;SDS011;8505;49.456;8.164;2023-07-08T08:04:19;11.30;;;7.32;;
16775;SDS011;8505;49.456;8.164;2023-07-08T08:06:49;16.60;;;7.10;;
16775;SDS011;8505;49.456;8.164;2023-07-08T08:09:17;12.63;;;7.07;;
16775;SDS011;8505;49.456;8.164;2023-07-08T08:11:44;12.27;;;7.45;;
16775;SDS011;8505;49.456;8.164;2023-07-08T08:14:13;12.18;;;7.45;;
16775;SDS011;8505;49.456;8.164;2023-07-08T08:16:40;12.93;;;7.47;;
16775;SDS011;8505;49.456;8.164;2023-07-08T08:19:08;14.53;;;7.43;;
16775;SDS011;8505;49.456;8.164;2023-07-08T08:21:36;11.48;;;7.60;;
16775;SDS011;8505;49.456;8.164;2023-07-08T08:24:05;11.80;;;7.22;;
16775;SDS011;8505;49.456;8.164;2023-07-08T08:26:33;13.63;;;7.20;;
16775;SDS011;8505;49.456;8.164;2023-07-08T08:29:02;12.75;;;7.40;;
16775;SDS011;8505;49.456;8.164;2023-07-08T08:31:31;11.63;;;7.78;;
16775;SDS011;8505;49.456;8.164;2023-07-08T08:33:59;13.05;;;7.93;;
16775;SDS011;8505;49.456;8.164;2023-07-08T08:36:27;14.57;;;7.50;;
16775;SDS011;8505;49.456;8.164;2023-07-08T08:38:55;14.55;;;8.00;;
16775;SDS011;8505;49.456;8.164;2023-07-08T08:41:28;15.07;;;7.72;;
16775;SDS011;8505;49.456;8.164;2023-07-08T08:43:58;12.68;;;7.60;;
16775;SDS011;8505;49.456;8.164;2023-07-08T08:46:31;13.80;;;7.80;;
16775;SDS011;8505;49.456;8.164;2023-07-08T08:49:02;13.98;;;8.13;;
16775;SDS011;8505;49.456;8.164;2023-07-08T08:51:34;13.07;;;7.72;;
16775;SDS011;8505;49.456;8.164;2023-07-08T08:54:02;14.30;;;7.72;;
16775;SDS011;8505;49.456;8.164;2023-07-08T08:56:36;14.80;;;7.80;;
16775;SDS011;8505;49.456;8.164;2023-07-08T08:59:11;12.88;;;7.78;;
16775;SDS011;8505;49.456;8.164;2023-07-08T09:01:54;12.50;;;7.75;;
16775;SDS011;8505;49.456;8.164;2023-07-08T09:04:24;13.73;;;7.60;;
16775;SDS011;8505;49.456;8.164;2023-07-08T09:07:00;13.25;;;7.90;;
16775;SDS011;8505;49.456;8.164;2023-07-08T09:09:35;11.30;;;7.20;;
16775;SDS011;8505;49.456;8.164;2023-07-08T09:12:10;13.80;;;7.07;;
16775;SDS011;8505;49.456;8.164;2023-07-08T09:14:44;14.02;;;7.75;;
16775;SDS011;8505;49.456;8.164;2023-07-08T09:17:14;13.27;;;7.60;;
16775;SDS011;8505;49.456;8.164;2023-07-08T09:19:49;12.77;;;7.68;;
16775;SDS011;8505;49.456;8.164;2023-07-08T09:22:25;13.10;;;7.50;;
16775;SDS011;8505;49.456;8.164;2023-07-08T09:25:01;11.35;;;7.82;;
16775;SDS011;8505;49.456;8.164;2023-07-08T09:27:39;10.87;;;7.13;;
16775;SDS011;8505;49.456;8.164;2023-07-08T09:30:08;14.50;;;7.57;;
16775;SDS011;8505;49.456;8.164;2023-07-08T09:32:40;13.02;;;7.72;;
16775;SDS011;8505;49.456;8.164;2023-07-08T09:35:09;13.55;;;7.70;;
16775;SDS011;8505;49.456;8.164;2023-07-08T09:37:45;12.93;;;7.00;;
16775;SDS011;8505;49.456;8.164;2023-07-08T09:40:16;14.80;;;7.35;;
16775;SDS011;8505;49.456;8.164;2023-07-08T09:42:48;10.73;;;7.20;;
16775;SDS011;8505;49.456;8.164;2023-07-08T09:45:19;12.52;;;7.28;;
16775;SDS011;8505;49.456;8.164;2023-07-08T09:47:51;11.90;;;7.55;;
16775;SDS011;8505;49.456;8.164;2023-07-08T09:50:22;13.35;;;7.82;;
16775;SDS011;8505;49.456;8.164;2023-07-08T09:52:51;11.60;;;7.28;;
16775;SDS011;8505;49.456;8.164;2023-07-08T09:55:23;11.90;;;7.68;;
16775;SDS011;8505;49.456;8.164;2023-07-08T09:57:53;10.82;;;7.13;;
16775;SDS011;8505;49.456;8.164;2023-07-08T10:00:26;12.35;;;7.18;;
16775;SDS011;8505;49.456;8.164;2023-07-08T10:02:56;19.33;;;8.15;;
16775;SDS011;8505;49.456;8.164;2023-07-08T10:05:30;13.30;;;7.00;;
16775;SDS011;8505;49.456;8.164;2023-07-08T10:08:00;12.10;;;6.73;;
16775;SDS011;8505;49.456;8.164;2023-07-08T10:10:31;10.82;;;6.82;;
16775;SDS011;8505;49.456;8.164;2023-07-08T10:13:03;11.82;;;6.55;;
16775;SDS011;8505;49.456;8.164;2023-07-08T10:15:35;10.68;;;5.85;;
16775;SDS011;8505;49.456;8.164;2023-07-08T10:18:08;12.77;;;6.10;;
16775;SDS011;8505;49.456;8.164;2023-07-08T10:20:45;11.48;;;5.97;;
16775;SDS011;8505;49.456;8.164;2023-07-08T10:23:21;11.60;;;5.80;;
16775;SDS011;8505;49.456;8.164;2023-07-08T10:26:00;13.93;;;5.90;;
16775;SDS011;8505;49.456;8.164;2023-07-08T10:28:38;11.05;;;5.65;;
16775;SDS011;8505;49.456;8.164;2023-07-08T10:31:16;10.27;;;5.53;;
16775;SDS011;8505;49.456;8.164;2023-07-08T10:33:56;11.90;;;6.10;;
16775;SDS011;8505;49.456;8.164;2023-07-08T10:36:36;10.43;;;5.93;;
16775;SDS011;8505;49.456;8.164;2023-07-08T10:42:24;9.70;;;6.30;;
16775;SDS011;8505;49.456;8.164;2023-07-08T10:45:07;12.40;;;6.50;;
16775;SDS011;8505;49.456;8.164;2023-07-08T10:47:42;8.52;;;5.85;;
16775;SDS011;8505;49.456;8.164;2023-07-08T10:50:26;10.77;;;6.03;;
16775;SDS011;8505;49.456;8.164;2023-07-08T10:53:09;10.75;;;5.78;;
16775;SDS011;8505;49.456;8.164;2023-07-08T10:55:50;10.25;;;5.85;;
16775;SDS011;8505;49.456;8.164;2023-07-08T10:58:27;11.10;;;5.68;;
16775;SDS011;8505;49.456;8.164;2023-07-08T11:01:09;15.32;;;5.60;;
16775;SDS011;8505;49.456;8.164;2023-07-08T11:03:56;10.90;;;5.50;;
16775;SDS011;8505;49.456;8.164;2023-07-08T11:06:53;10.85;;;5.40;;
16775;SDS011;8505;49.456;8.164;2023-07-08T11:09:26;9.27;;;5.28;;
16775;SDS011;8505;49.456;8.164;2023-07-08T11:11:58;11.48;;;5.22;;
16775;SDS011;8505;49.456;8.164;2023-07-08T11:14:34;10.15;;;5.45;;
16775;SDS011;8505;49.456;8.164;2023-07-08T11:17:12;10.93;;;5.60;;
16775;SDS011;8505;49.456;8.164;2023-07-08T11:19:48;9.93;;;5.30;;
16775;SDS011;8505;49.456;8.164;2023-07-08T11:22:22;9.63;;;5.33;;
16775;SDS011;8505;49.456;8.164;2023-07-08T11:24:50;9.65;;;5.47;;
16775;SDS011;8505;49.456;8.164;2023-07-08T11:27:22;10.18;;;5.20;;
16775;SDS011;8505;49.456;8.164;2023-07-08T11:29:55;9.30;;;5.10;;
16775;SDS011;8505;49.456;8.164;2023-07-08T11:32:26;10.02;;;5.03;;
16775;SDS011;8505;49.456;8.164;2023-07-08T11:34:57;10.65;;;5.15;;
16775;SDS011;8505;49.456;8.164;2023-07-08T11:37:29;8.45;;;5.10;;
16775;SDS011;8505;49.456;8.164;2023-07-08T11:39:58;9.33;;;4.77;;
16775;SDS011;8505;49.456;8.164;2023-07-08T11:42:41;8.52;;;4.65;;
16775;SDS011;8505;49.456;8.164;2023-07-08T11:45:25;8.30;;;4.97;;
16775;SDS011;8505;49.456;8.164;2023-07-08T11:48:04;13.37;;;5.67;;
16775;SDS011;8505;49.456;8.164;2023-07-08T11:50:35;10.77;;;5.07;;
16775;SDS011;8505;49.456;8.164;2023-07-08T11:53:06;9.40;;;5.32;;
16775;SDS011;8505;49.456;8.164;2023-07-08T11:55:37;9.13;;;4.97;;
16775;SDS011;8505;49.456;8.164;2023-07-08T11:58:06;9.30;;;4.90;;
16775;SDS011;8505;49.456;8.164;2023-07-08T12:00:35;8.80;;;4.78;;
16775;SDS011;8505;49.456;8.164;2023-07-08T12:03:19;10.95;;;5.03;;
16775;SDS011;8505;49.456;8.164;2023-07-08T12:05:47;8.30;;;4.90;;
16775;SDS011;8505;49.456;8.164;2023-07-08T12:08:17;9.02;;;4.63;;
16775;SDS011;8505;49.456;8.164;2023-07-08T12:10:47;8.82;;;4.63;;
16775;SDS011;8505;49.456;8.164;2023-07-08T12:13:17;9.15;;;4.97;;
16775;SDS011;8505;49.456;8.164;2023-07-08T12:15:47;8.88;;;5.28;;
16775;SDS011;8505;49.456;8.164;2023-07-08T12:18:16;8.75;;;4.72;;
16775;SDS011;8505;49.456;8.164;2023-07-08T12:20:52;9.48;;;4.65;;
16775;SDS011;8505;49.456;8.164;2023-07-08T12:23:23;9.68;;;4.85;;
16775;SDS011;8505;49.456;8.164;2023-07-08T12:25:53;7.50;;;4.80;;
16775;SDS011;8505;49.456;8.164;2023-07-08T12:28:22;9.20;;;4.70;;
16775;SDS011;8505;49.456;8.164;2023-07-08T12:30:50;9.02;;;4.72;;
16775;SDS011;8505;49.456;8.164;2023-07-08T12:33:24;7.93;;;4.68;;
16775;SDS011;8505;49.456;8.164;2023-07-08T12:35:56;9.57;;;4.65;;
16775;SDS011;8505;49.456;8.164;2023-07-08T12:38:26;8.88;;;5.00;;
16775;SDS011;8505;49.456;8.164;2023-07-08T12:40:57;9.10;;;4.68;;
16775;SDS011;8505;49.456;8.164;2023-07-08T12:43:27;8.70;;;4.80;;
16775;SDS011;8505;49.456;8.164;2023-07-08T12:45:56;9.10;;;4.60;;
16775;SDS011;8505;49.456;8.164;2023-07-08T12:48:25;9.53;;;4.97;;
16775;SDS011;8505;49.456;8.164;2023-07-08T12:50:52;7.20;;;4.75;;
16775;SDS011;8505;49.456;8.164;2023-07-08T12:53:20;8.35;;;5.32;;
16775;SDS011;8505;49.456;8.164;2023-07-08T12:55:48;8.57;;;4.68;;
16775;SDS011;8505;49.456;8.164;2023-07-08T12:58:22;10.43;;;4.70;;
16775;SDS011;8505;49.456;8.164;2023-07-08T13:00:54;8.85;;;4.60;;
16775;SDS011;8505;49.456;8.164;2023-07-08T13:03:29;10.15;;;4.72;;
16775;SDS011;8505;49.456;8.164;2023-07-08T13:05:59;9.27;;;5.10;;
16775;SDS011;8505;49.456;8.164;2023-07-08T13:08:30;9.90;;;4.90;;
16775;SDS011;8505;49.456;8.164;2023-07-08T13:11:03;9.57;;;5.00;;
16775;SDS011;8505;49.456;8.164;2023-07-08T13:13:33;8.95;;;4.95;;
16775;SDS011;8505;49.456;8.164;2023-07-08T13:16:04;7.47;;;4.90;;
16775;SDS011;8505;49.456;8.164;2023-07-08T13:18:35;10.38;;;4.95;;
16775;SDS011;8505;49.456;8.164;2023-07-08T13:21:05;9.25;;;4.75;;
16775;SDS011;8505;49.456;8.164;2023-07-08T13:23:34;10.95;;;5.07;;
16775;SDS011;8505;49.456;8.164;2023-07-08T13:26:11;9.32;;;5.10;;
16775;SDS011;8505;49.456;8.164;2023-07-08T13:28:40;7.85;;;4.63;;
16775;SDS011;8505;49.456;8.164;2023-07-08T13:31:15;10.50;;;5.15;;
16775;SDS011;8505;49.456;8.164;2023-07-08T13:33:51;9.77;;;4.95;;
16775;SDS011;8505;49.456;8.164;2023-07-08T13:36:31;9.82;;;4.90;;
16775;SDS011;8505;49.456;8.164;2023-07-08T13:39:01;10.68;;;4.95;;
16775;SDS011;8505;49.456;8.164;2023-07-08T13:41:32;8.82;;;4.90;;
16775;SDS011;8505;49.456;8.164;2023-07-08T13:44:03;7.47;;;4.38;;
16775;SDS011;8505;49.456;8.164;2023-07-08T13:46:33;10.50;;;4.88;;
16775;SDS011;8505;49.456;8.164;2023-07-08T13:49:09;8.63;;;4.60;;
16775;SDS011;8505;49.456;8.164;2023-07-08T13:51:39;9.50;;;4.50;;
16775;SDS011;8505;49.456;8.164;2023-07-08T13:54:12;12.37;;;5.00;;
16775;SDS011;8505;49.456;8.164;2023-07-08T13:56:41;7.20;;;4.47;;
16775;SDS011;8505;49.456;8.164;2023-07-08T13:59:10;9.50;;;4.80;;
16775;SDS011;8505;49.456;8.164;2023-07-08T14:01:43;10.23;;;4.57;;
16775;SDS011;8505;49.456;8.164;2023-07-08T14:04:13;9.93;;;4.57;;
16775;SDS011;8505;49.456;8.164;2023-07-08T14:06:45;9.30;;;4.43;;
16775;SDS011;8505;49.456;8.164;2023-07-08T14:09:14;9.38;;;4.38;;
16775;SDS011;8505;49.456;8.164;2023-07-08T14:11:43;8.63;;;4.60;;
16775;SDS011;8505;49.456;8.164;2023-07-08T14:14:11;11.00;;;4.57;;
16775;SDS011;8505;49.456;8.164;2023-07-08T14:16:39;8.93;;;4.43;;
16775;SDS011;8505;49.456;8.164;2023-07-08T14:19:12;7.72;;;4.32;;
16775;SDS011;8505;49.456;8.164;2023-07-08T14:21:44;9.38;;;4.40;;
16775;SDS011;8505;49.456;8.164;2023-07-08T14:24:12;8.05;;;4.53;;
16775;SDS011;8505;49.456;8.164;2023-07-08T14:26:42;8.95;;;4.97;;
16775;SDS011;8505;49.456;8.164;2023-07-08T14:29:10;10.13;;;4.37;;
16775;SDS011;8505;49.456;8.164;2023-07-08T14:31:39;13.95;;;4.97;;
16775;SDS011;8505;49.456;8.164;2023-07-08T14:34:08;9.68;;;4.78;;
16775;SDS011;8505;49.456;8.164;2023-07-08T14:36:39;7.75;;;4.38;;
16775;SDS011;8505;49.456;8.164;2023-07-08T14:39:11;10.02;;;4.40;;
16775;SDS011;8505;49.456;8.164;2023-07-08T14:41:40;10.45;;;4.40;;
16775;SDS011;8505;49.456;8.164;2023-07-08T14:44:18;10.68;;;4.75;;
16775;SDS011;8505;49.456;8.164;2023-07-08T14:46:48;8.07;;;4.18;;
16775;SDS011;8505;49.456;8.164;2023-07-08T14:49:18;8.70;;;4.13;;
16775;SDS011;8505;49.456;8.164;2023-07-08T14:51:49;9.07;;;3.90;;
16775;SDS011;8505;49.456;8.164;2023-07-08T14:54:17;8.60;;;4.30;;
16775;SDS011;8505;49.456;8.164;2023-07-08T14:56:46;6.57;;;4.10;;
16775;SDS011;8505;49.456;8.164;2023-07-08T14:59:16;12.60;;;4.68;;
16775;SDS011;8505;49.456;8.164;2023-07-08T15:01:46;8.68;;;4.60;;
16775;SDS011;8505;49.456;8.164;2023-07-08T15:04:14;8.05;;;4.35;;
16775;SDS011;8505;49.456;8.164;2023-07-08T15:06:43;9.68;;;5.35;;
16775;SDS011;8505;49.456;8.164;2023-07-08T15:09:13;9.57;;;4.88;;
16775;SDS011;8505;49.456;8.164;2023-07-08T15:11:43;8.90;;;4.23;;
16775;SDS011;8505;49.456;8.164;2023-07-08T15:14:16;8.30;;;4.20;;